Sebastián Ferrari

Olheiro-Chefe - Nueva Chicago
25 Fev 2027
Quinta-feira
Processo

Personalidade

Adaptabilidade (1) Ambição (7) Controvérsia (13) Lealdade (3) Pressão (1) Profissionalismo (1) Espírito Esportivo (7) Temperamento (8)

Perfil

Estilo de Treinamento Democrático
Licença Continental C
Determinação 3
Gestão de Pessoas 2
Motivação 1
Disciplina 2
Satisfação no Trabalho
100%
Fadiga
0%
Função Olheiro-Chefe
Salário 22.8K p/s
Contrato 14.03.2028

Desempenho

Comportamento Bom
Eficácia do Treinamento
15%
Desenvolvimento do Jogador
15%
Prevenção de Lesões
20%
Implementação Tática
25%

Eventos Recentes

Participou de uma reunião de recrutamento 14d atrás
Participou de uma reunião de recrutamento 21d atrás
Participou de uma reunião de recrutamento 28d atrás
Participando de desenvolvimento profissional 35d atrás
Participou de uma reunião de recrutamento 35d atrás
Participando de desenvolvimento profissional 35d atrás
Participando de desenvolvimento profissional 35d atrás
Participando de desenvolvimento profissional 42d atrás

Monitorando agora

132
Jogador Clube Status Habilidade Confiança Observado Última observação Último voto
Enzo Vázquez Central Norte Ativo 96 / 120 40% 3 29.11.2026 -
Lautaro Amadé Defensa y Justicia Ativo 113 / 113 40% 2 29.11.2026 -
Agustín Zapata Alvarado Ativo 81 / 101 40% 1 28.11.2026 -
Mauro Casoli Talleres Ativo 91 / 98 40% 5 26.11.2026 -
Raúl Lozano Quilmes Ativo 122 / 113 40% 1 25.11.2026 -
Facundo Di Biasi Gimnasia La Plata Ativo 132 / 125 40% 1 25.11.2026 -
Lautaro Maldonado Instituto Ativo 125 / 118 40% 1 25.11.2026 -
Nahuel Galardi Maipú Ativo 100 / 118 40% 2 24.11.2026 -
Bayron Martínez Santiago Wanderers Ativo 67 / 89 40% 1 24.11.2026 -
Kevin Parra Deportes Quindio Ativo 66 / 77 40% 3 20.11.2026 -
Aldhy Valencia Cesar Vallejo Ativo 79 / 82 40% 1 17.11.2026 -
Miguel Silva Carabobo Ativo 92 / 98 40% 1 17.11.2026 -
Franco Petroli Lanús Ativo 121 / 129 40% 1 16.11.2026 -
Juan Pablo Noce All Boys Ativo 107 / 113 40% 1 16.11.2026 -
Manuel García Sarmiento Ativo 113 / 105 40% 1 16.11.2026 -
Agustín Dattola Almirante Brown Ativo 119 / 122 40% 1 16.11.2026 -
Mathías Bernatene Liverpool Montevideo Ativo 97 / 108 40% 2 14.11.2026 -
Angel Zamudio Sport Huancayo Ativo 112 / 115 40% 1 13.11.2026 -
David Agudelo Depor Ativo 105 / 103 40% 2 12.11.2026 -
Rodrigo Frutos Olimpia Ativo 88 / 99 40% 3 10.11.2026 -
Diego Duarte River Plate Ativo 70 / 71 40% 2 09.11.2026 -
Ítalo Sulbarán Zamora Ativo 84 / 89 40% 2 08.11.2026 -
Sebastián Mella Huachipato Ativo 91 / 101 40% 2 07.11.2026 -
Nahuel Pezzini Arsenal Ativo 119 / 105 40% 1 05.11.2026 -
Kevin González Trujillanos Ativo 93 / 93 40% 1 05.11.2026 -
Massimo Sandi Sport Huancayo Ativo 86 / 85 40% 1 03.11.2026 -
Juan Bobba Estudiantes de Caracas Ativo 90 / 82 40% 4 01.11.2026 -
Mathieu Choinière Los Angeles Football Club Ativo 116 / 93 40% 1 01.11.2026 -
Jeremías James Columbus Crew Ativo 124 / 120 40% 1 31.10.2026 -
Duván Mósquera Aguilas Doradas Ativo 100 / 100 40% 1 31.10.2026 -
Luis Corredor Estudiantes de Caracas Ativo 88 / 95 40% 1 28.10.2026 -
Guilherme Biro Austin FC Ativo 105 / 127 40% 1 28.10.2026 -
Julián Vila Arsenal Ativo 101 / 95 40% 1 28.10.2026 -
Eduardo Villanueva Colo-Colo Ativo 86 / 84 40% 1 26.10.2026 -
Emiliano González Almagro Ativo 121 / 119 40% 2 23.10.2026 -
Tomás Giménez Gimnasia y Esgrima Ativo 109 / 114 40% 1 23.10.2026 -
Tomás Romero New York City Ativo 87 / 108 40% 1 22.10.2026 -
James Mejia Cortulua Ativo 121 / 117 40% 1 22.10.2026 -
Ryan Raposo Los Angeles Football Club Ativo 110 / 100 40% 1 22.10.2026 -
Francisco Gualtieri Estudiantes Ativo 76 / 87 40% 1 20.10.2026 -
Facundo Ledesma Mitre Ativo 99 / 89 40% 1 20.10.2026 -
Yulián Montaño Depor Ativo 84 / 70 40% 1 19.10.2026 -
Trey Muse Portland Timbers Ativo 115 / 104 40% 1 19.10.2026 -
Adrián Montañez Deportivo Tachira Ativo 116 / 101 40% 1 19.10.2026 -
Martín García Atlanta Ativo 126 / 110 40% 1 19.10.2026 -
Carlos Murillo Atletico Venezuela Ativo 82 / 93 40% 1 18.10.2026 -
Lukas Ramil Sauer All Boys Ativo 88 / 116 40% 1 16.10.2026 -
Tiago Libares All Boys Ativo 91 / 114 40% 1 15.10.2026 -
Gastón Fernández Chacarita Juniors Ativo 113 / 106 40% 1 14.10.2026 -
Cristian Díaz Zamora Ativo 90 / 106 40% 1 12.10.2026 -
José Velásquez Aragua Ativo 79 / 96 40% 1 12.10.2026 -
Mathías Bordón Sol de America Ativo 75 / 82 40% 1 12.10.2026 -
Ángel Espínola Sportivo Luqueno Ativo 107 / 99 40% 2 10.10.2026 -
Aldo Pérez Guarani Ativo 111 / 100 40% 2 10.10.2026 -
Kevin O'Toole New York City Ativo 92 / 113 40% 1 07.10.2026 -
Facundo Melillán Güemes Ativo 101 / 112 40% 1 07.10.2026 -
Osnel García Trujillanos Ativo 74 / 83 40% 2 06.10.2026 -
Tomás Durso Atlético Tucumán Ativo 109 / 122 40% 1 05.10.2026 -
Joaquín Enrico San Telmo Ativo 94 / 105 40% 1 03.10.2026 -
George Marks Philadelphia Union Ativo 91 / 115 40% 1 02.10.2026 -
Fernando Abarzúa San Luis Ativo 85 / 90 40% 1 01.10.2026 -
Cristian Savarino Llaneros Ativo 99 / 99 40% 1 30.09.2026 -
Mateo Clemente San Lorenzo Ativo 111 / 105 40% 1 30.09.2026 -
Lucas Ruiz Ferro Carril Oeste Ativo 115 / 97 40% 1 30.09.2026 -
Elías Calderón Central Norte Ativo 103 / 105 40% 2 26.09.2026 -
Hugo Gaona Sportivo Luqueno Ativo 95 / 79 40% 1 26.09.2026 -
Nicolás Soto America de Cali Ativo 85 / 92 40% 1 26.09.2026 -
Cristhian Paredes Cerro Porteno Ativo 104 / 108 40% 1 26.09.2026 -
Juan Camacaro Aragua Ativo 74 / 88 40% 1 24.09.2026 -
Jean Frank Gutiérrez Estudiantes de Merida Ativo 115 / 108 40% 1 24.09.2026 -
Gustavo Calderari Colegiales Ativo 104 / 97 40% 1 24.09.2026 -
Luis Villegas Morelia Ativo 95 / 87 40% 1 23.09.2026 -
Tomás Palleres Güemes Ativo 87 / 101 40% 1 20.09.2026 -
Alcides Barbotte Guarani Ativo 119 / 99 40% 1 19.09.2026 -
Franco Martínez Artigas Ativo 115 / 101 40% 1 18.09.2026 -
Sebastián Santos Leon Ativo 112 / 125 40% 1 18.09.2026 -
Mauricio Cuevas Santos Laguna Ativo 87 / 124 40% 1 17.09.2026 -
Diego Vicente La Luz Ativo 109 / 102 40% 1 17.09.2026 -
Catriel Cabellos Sporting Cristal Ativo 108 / 116 40% 1 15.09.2026 -
Gustavo Dionisi Guarani Ativo 89 / 92 40% 1 15.09.2026 -
Juan Martín Rojas Morón Ativo 114 / 109 40% 1 15.09.2026 -
Ángel González Libertad Ativo 103 / 113 40% 1 14.09.2026 -
Francisco Castillo Llaneros Ativo 85 / 87 40% 1 14.09.2026 -
Juan Camilo Loaiza Llaneros Ativo 102 / 94 40% 1 12.09.2026 -
Facundo Vila Estudiantes Ativo 116 / 106 40% 1 12.09.2026 -
Sebastián Cáceres Montevideo City Torque Ativo 84 / 106 40% 1 11.09.2026 -
Alexis Gutiérrez Club America Ativo 100 / 135 40% 1 11.09.2026 -
Luis Barbat Cerrito Ativo 106 / 87 40% 1 09.09.2026 -
Nicolás Rossi Juventud Ativo 96 / 108 40% 2 08.09.2026 -
Facundo Lemos Artigas Ativo 87 / 84 40% 1 08.09.2026 -
Ezequiel Busquets Montevideo City Torque Ativo 108 / 113 40% 1 08.09.2026 -
Mauricio Isais Pachuca Ativo 132 / 112 40% 1 08.09.2026 -
Andrés Macea Real Santander Ativo 68 / 75 40% 2 06.09.2026 -
Hernán Domínguez Nacional Ativo 79 / 89 40% 1 06.09.2026 -
José Hernández Queretaro Ativo 94 / 107 40% 1 05.09.2026 -
Andrew Thomas Seattle Sounders Ativo 129 / 87 40% 1 05.09.2026 -
Jaime Mora Envigado Ativo 91 / 95 40% 1 04.09.2026 -
Nicolás Thaller Colón Ativo 113 / 110 40% 1 04.09.2026 -
Vicente Lagos Santiago Wanderers Ativo 92 / 91 40% 1 01.09.2026 -
José Febres Trujillanos Ativo 82 / 94 40% 1 01.09.2026 -
Aldo Montes Tigres Ativo 92 / 100 40% 2 30.08.2026 -
Francisco Valenzuela Estudiantes de Merida Ativo 73 / 85 40% 1 30.08.2026 -
Nahuel Suárez La Luz Ativo 93 / 98 40% 1 29.08.2026 -
Jaime Acosta Barranquilla Ativo 100 / 82 40% 1 29.08.2026 -
Fernando Tapia Club America Ativo 121 / 109 40% 1 28.08.2026 -
Francisco Casanova Cerrito Ativo 92 / 99 40% 1 28.08.2026 -
Nicolás Fernandez Universidad de Chile Ativo 122 / 111 40% 1 28.08.2026 -
Iván Moreno Leon Ativo 107 / 109 40% 1 28.08.2026 -
Humberto Acevedo Union Magdalena Ativo 109 / 93 40% 1 26.08.2026 -
Weibmar Asprilla Independiente Medellin Ativo 125 / 121 40% 1 25.08.2026 -
Emanuel Carlos Atenas Ativo 97 / 94 40% 1 25.08.2026 -
Augusto Gallo Fenix Ativo 87 / 104 40% 1 25.08.2026 -
Alejandro Rodríguez Deportivo Cali Ativo 108 / 120 40% 1 22.08.2026 -
Juan Diego Jaramillo Depor Ativo 93 / 105 40% 1 21.08.2026 -
Alejandro Santander Cobresal Ativo 97 / 92 40% 1 20.08.2026 -
Pedro González Cerro Largo Ativo 110 / 114 40% 1 20.08.2026 -
José Sanhueza Universidad de Concepcion Ativo 96 / 75 40% 2 19.08.2026 -
Yesid Díaz Fortaleza CEIF Ativo 128 / 112 40% 1 15.08.2026 -
Duvan Medina Cortulua Ativo 102 / 92 40% 1 15.08.2026 -
Pablo Monroy Pumas UNAM Ativo 112 / 115 40% 1 14.08.2026 -
Yeferson Moreno Barranquilla Ativo 105 / 118 40% 1 14.08.2026 -
Jonathan Sirois FC Dallas Ativo 96 / 99 40% 1 12.08.2026 -
José Castro Tijuana Ativo 80 / 90 40% 1 12.08.2026 -
Denilson Ojeda Carabobo Ativo 87 / 95 40% 1 10.08.2026 -
Renato Solís Sporting Cristal Ativo 131 / 127 40% 1 08.08.2026 -
Adriano Freitas Deportivo Maldonado Ativo 94 / 106 40% 1 07.08.2026 -
Brian Lapaz Oriental Ativo 80 / 71 40% 1 04.08.2026 -
Nicolás Forastiero Deportivo Maldonado Ativo 95 / 102 40% 1 03.08.2026 -
Juan Camilo Mosquera Atletico Bucaramanga Ativo 114 / 115 40% 1 03.08.2026 -
Nicolás Kozlovsky Oriental Ativo 99 / 114 40% 1 03.08.2026 -
Emiliano Ancheta Nacional Ativo 118 / 116 40% 1 02.08.2026 -
Jesús Yendis Caracas Ativo 90 / 111 40% 1 02.08.2026 -